sensor_id;sensor_type;location;lat;lon;timestamp;P1;durP1;ratioP1;P2;durP2;ratioP2
817;SDS011;391;51.052;6.954;2022-08-19T00:01:23;9.87;;;9.07;;
817;SDS011;391;51.052;6.954;2022-08-19T00:03:31;10.13;;;9.43;;
817;SDS011;391;51.052;6.954;2022-08-19T00:05:34;9.50;;;8.80;;
817;SDS011;391;51.052;6.954;2022-08-19T00:07:39;9.80;;;9.10;;
817;SDS011;391;51.052;6.954;2022-08-19T00:09:44;8.83;;;8.23;;
817;SDS011;391;51.052;6.954;2022-08-19T00:11:48;10.63;;;9.83;;
817;SDS011;391;51.052;6.954;2022-08-19T00:13:52;10.37;;;9.57;;
817;SDS011;391;51.052;6.954;2022-08-19T00:15:57;11.03;;;10.13;;
817;SDS011;391;51.052;6.954;2022-08-19T00:18:01;10.77;;;9.77;;
817;SDS011;391;51.052;6.954;2022-08-19T00:20:05;13.03;;;12.00;;
817;SDS011;391;51.052;6.954;2022-08-19T00:22:10;10.60;;;9.80;;
817;SDS011;391;51.052;6.954;2022-08-19T00:24:15;9.73;;;9.00;;
817;SDS011;391;51.052;6.954;2022-08-19T00:26:19;10.70;;;9.63;;
817;SDS011;391;51.052;6.954;2022-08-19T00:28:22;10.93;;;10.07;;
817;SDS011;391;51.052;6.954;2022-08-19T00:30:26;11.97;;;11.17;;
817;SDS011;391;51.052;6.954;2022-08-19T00:32:30;10.30;;;9.30;;
817;SDS011;391;51.052;6.954;2022-08-19T00:34:34;10.03;;;9.30;;
817;SDS011;391;51.052;6.954;2022-08-19T00:36:38;10.50;;;9.70;;
817;SDS011;391;51.052;6.954;2022-08-19T00:38:42;9.97;;;9.17;;
817;SDS011;391;51.052;6.954;2022-08-19T00:40:47;10.50;;;9.70;;
817;SDS011;391;51.052;6.954;2022-08-19T00:42:52;10.37;;;9.67;;
817;SDS011;391;51.052;6.954;2022-08-19T00:44:56;10.97;;;10.13;;
817;SDS011;391;51.052;6.954;2022-08-19T00:46:59;12.50;;;11.60;;
817;SDS011;391;51.052;6.954;2022-08-19T00:49:05;12.20;;;11.20;;
817;SDS011;391;51.052;6.954;2022-08-19T00:51:12;11.90;;;10.87;;
817;SDS011;391;51.052;6.954;2022-08-19T00:53:17;10.70;;;9.90;;
817;SDS011;391;51.052;6.954;2022-08-19T00:55:25;10.20;;;9.40;;
817;SDS011;391;51.052;6.954;2022-08-19T00:57:32;10.97;;;10.07;;
817;SDS011;391;51.052;6.954;2022-08-19T00:59:39;11.07;;;10.07;;
817;SDS011;391;51.052;6.954;2022-08-19T01:02:03;10.90;;;10.00;;
817;SDS011;391;51.052;6.954;2022-08-19T01:04:07;10.77;;;9.97;;
817;SDS011;391;51.052;6.954;2022-08-19T01:06:11;10.97;;;10.17;;
817;SDS011;391;51.052;6.954;2022-08-19T01:08:20;10.07;;;9.27;;
817;SDS011;391;51.052;6.954;2022-08-19T01:10:27;10.57;;;9.70;;
817;SDS011;391;51.052;6.954;2022-08-19T01:12:39;11.33;;;10.43;;
817;SDS011;391;51.052;6.954;2022-08-19T01:14:43;10.60;;;9.80;;
817;SDS011;391;51.052;6.954;2022-08-19T01:16:48;9.40;;;8.67;;
817;SDS011;391;51.052;6.954;2022-08-19T01:18:56;12.47;;;11.47;;
817;SDS011;391;51.052;6.954;2022-08-19T01:21:01;10.00;;;9.30;;
817;SDS011;391;51.052;6.954;2022-08-19T01:23:10;11.93;;;10.93;;
817;SDS011;391;51.052;6.954;2022-08-19T01:25:16;10.20;;;9.43;;
817;SDS011;391;51.052;6.954;2022-08-19T01:27:21;10.97;;;10.10;;
817;SDS011;391;51.052;6.954;2022-08-19T01:29:25;10.30;;;9.40;;
817;SDS011;391;51.052;6.954;2022-08-19T01:31:29;14.20;;;13.10;;
817;SDS011;391;51.052;6.954;2022-08-19T01:33:33;13.87;;;12.57;;
817;SDS011;391;51.052;6.954;2022-08-19T01:35:37;14.53;;;13.30;;
817;SDS011;391;51.052;6.954;2022-08-19T01:37:48;11.53;;;10.60;;
817;SDS011;391;51.052;6.954;2022-08-19T01:39:55;10.20;;;9.40;;
817;SDS011;391;51.052;6.954;2022-08-19T01:41:58;12.77;;;11.67;;
817;SDS011;391;51.052;6.954;2022-08-19T01:44:05;11.73;;;10.73;;
817;SDS011;391;51.052;6.954;2022-08-19T01:46:20;10.50;;;9.73;;
817;SDS011;391;51.052;6.954;2022-08-19T01:48:26;12.80;;;11.80;;
817;SDS011;391;51.052;6.954;2022-08-19T01:50:31;10.90;;;9.90;;
817;SDS011;391;51.052;6.954;2022-08-19T01:52:35;14.10;;;12.90;;
817;SDS011;391;51.052;6.954;2022-08-19T01:54:39;14.40;;;13.30;;
817;SDS011;391;51.052;6.954;2022-08-19T01:56:44;11.50;;;10.60;;
817;SDS011;391;51.052;6.954;2022-08-19T01:58:48;10.90;;;9.90;;
817;SDS011;391;51.052;6.954;2022-08-19T02:00:54;13.73;;;12.63;;
817;SDS011;391;51.052;6.954;2022-08-19T02:02:58;11.60;;;10.70;;
817;SDS011;391;51.052;6.954;2022-08-19T02:05:03;13.33;;;12.20;;
817;SDS011;391;51.052;6.954;2022-08-19T02:07:12;10.43;;;9.60;;
817;SDS011;391;51.052;6.954;2022-08-19T02:09:15;11.77;;;10.87;;
817;SDS011;391;51.052;6.954;2022-08-19T02:11:20;13.23;;;12.23;;
817;SDS011;391;51.052;6.954;2022-08-19T02:13:26;11.73;;;10.73;;
817;SDS011;391;51.052;6.954;2022-08-19T02:15:30;11.77;;;10.80;;
817;SDS011;391;51.052;6.954;2022-08-19T02:17:33;11.90;;;10.90;;
817;SDS011;391;51.052;6.954;2022-08-19T02:19:37;11.53;;;10.63;;
817;SDS011;391;51.052;6.954;2022-08-19T02:21:42;11.20;;;10.40;;
817;SDS011;391;51.052;6.954;2022-08-19T02:23:46;12.83;;;11.83;;
817;SDS011;391;51.052;6.954;2022-08-19T02:25:51;12.47;;;11.47;;
817;SDS011;391;51.052;6.954;2022-08-19T02:27:55;12.13;;;10.60;;
817;SDS011;391;51.052;6.954;2022-08-19T02:30:00;10.93;;;10.03;;
817;SDS011;391;51.052;6.954;2022-08-19T02:32:04;11.90;;;10.87;;
817;SDS011;391;51.052;6.954;2022-08-19T02:34:07;10.43;;;9.60;;
817;SDS011;391;51.052;6.954;2022-08-19T02:36:11;9.67;;;8.90;;
817;SDS011;391;51.052;6.954;2022-08-19T02:38:16;11.10;;;10.20;;
817;SDS011;391;51.052;6.954;2022-08-19T02:40:28;12.73;;;11.43;;
817;SDS011;391;51.052;6.954;2022-08-19T02:42:35;10.80;;;10.00;;
817;SDS011;391;51.052;6.954;2022-08-19T02:44:39;13.13;;;12.03;;
817;SDS011;391;51.052;6.954;2022-08-19T02:46:44;12.13;;;11.00;;
817;SDS011;391;51.052;6.954;2022-08-19T02:48:53;12.93;;;11.73;;
817;SDS011;391;51.052;6.954;2022-08-19T02:50:59;10.83;;;9.77;;
817;SDS011;391;51.052;6.954;2022-08-19T02:53:02;11.20;;;10.40;;
817;SDS011;391;51.052;6.954;2022-08-19T02:55:06;11.60;;;10.60;;
817;SDS011;391;51.052;6.954;2022-08-19T02:57:10;10.13;;;9.33;;
817;SDS011;391;51.052;6.954;2022-08-19T02:59:14;11.07;;;10.10;;
817;SDS011;391;51.052;6.954;2022-08-19T03:01:21;10.93;;;9.97;;
817;SDS011;391;51.052;6.954;2022-08-19T03:03:27;10.43;;;9.60;;
817;SDS011;391;51.052;6.954;2022-08-19T03:05:31;15.03;;;13.73;;
817;SDS011;391;51.052;6.954;2022-08-19T03:07:54;12.07;;;11.07;;
817;SDS011;391;51.052;6.954;2022-08-19T03:09:58;12.80;;;11.77;;
817;SDS011;391;51.052;6.954;2022-08-19T03:12:02;13.00;;;11.80;;
817;SDS011;391;51.052;6.954;2022-08-19T03:14:06;12.33;;;11.33;;
817;SDS011;391;51.052;6.954;2022-08-19T03:16:11;11.80;;;10.80;;
817;SDS011;391;51.052;6.954;2022-08-19T03:18:15;11.53;;;10.60;;
817;SDS011;391;51.052;6.954;2022-08-19T03:20:20;12.00;;;11.00;;
817;SDS011;391;51.052;6.954;2022-08-19T03:22:24;12.63;;;11.60;;
817;SDS011;391;51.052;6.954;2022-08-19T03:24:28;10.43;;;9.50;;
817;SDS011;391;51.052;6.954;2022-08-19T03:26:32;11.13;;;10.23;;
817;SDS011;391;51.052;6.954;2022-08-19T03:28:37;11.90;;;11.00;;
817;SDS011;391;51.052;6.954;2022-08-19T03:30:41;13.20;;;12.10;;
817;SDS011;391;51.052;6.954;2022-08-19T03:32:45;12.40;;;11.40;;
817;SDS011;391;51.052;6.954;2022-08-19T03:34:54;12.30;;;11.30;;
817;SDS011;391;51.052;6.954;2022-08-19T03:37:01;12.07;;;11.07;;
817;SDS011;391;51.052;6.954;2022-08-19T03:39:07;12.87;;;11.83;;
817;SDS011;391;51.052;6.954;2022-08-19T03:41:12;12.73;;;11.73;;
817;SDS011;391;51.052;6.954;2022-08-19T03:43:17;11.20;;;10.20;;
817;SDS011;391;51.052;6.954;2022-08-19T03:45:20;13.43;;;12.30;;
817;SDS011;391;51.052;6.954;2022-08-19T03:47:24;13.03;;;11.93;;
817;SDS011;391;51.052;6.954;2022-08-19T03:49:29;11.83;;;10.83;;
817;SDS011;391;51.052;6.954;2022-08-19T03:51:35;11.37;;;10.47;;
817;SDS011;391;51.052;6.954;2022-08-19T03:53:42;12.50;;;11.50;;
817;SDS011;391;51.052;6.954;2022-08-19T03:55:46;12.10;;;11.10;;
817;SDS011;391;51.052;6.954;2022-08-19T03:57:49;11.60;;;10.73;;
817;SDS011;391;51.052;6.954;2022-08-19T03:59:59;11.63;;;10.73;;
817;SDS011;391;51.052;6.954;2022-08-19T04:02:15;12.47;;;11.53;;
817;SDS011;391;51.052;6.954;2022-08-19T04:04:18;11.47;;;10.57;;
817;SDS011;391;51.052;6.954;2022-08-19T04:06:22;12.60;;;11.60;;
817;SDS011;391;51.052;6.954;2022-08-19T04:08:27;11.67;;;10.73;;
817;SDS011;391;51.052;6.954;2022-08-19T04:10:34;12.10;;;11.20;;
817;SDS011;391;51.052;6.954;2022-08-19T04:12:38;11.30;;;10.37;;
817;SDS011;391;51.052;6.954;2022-08-19T04:14:42;11.03;;;10.17;;
817;SDS011;391;51.052;6.954;2022-08-19T04:16:51;12.70;;;11.70;;
817;SDS011;391;51.052;6.954;2022-08-19T04:18:55;12.90;;;11.80;;
817;SDS011;391;51.052;6.954;2022-08-19T04:21:02;11.20;;;10.30;;
817;SDS011;391;51.052;6.954;2022-08-19T04:23:07;13.23;;;12.03;;
817;SDS011;391;51.052;6.954;2022-08-19T04:25:10;12.43;;;11.40;;
817;SDS011;391;51.052;6.954;2022-08-19T04:27:15;12.17;;;11.10;;
817;SDS011;391;51.052;6.954;2022-08-19T04:29:20;11.50;;;10.60;;
817;SDS011;391;51.052;6.954;2022-08-19T04:31:27;11.33;;;10.43;;
817;SDS011;391;51.052;6.954;2022-08-19T04:33:33;12.87;;;11.77;;
817;SDS011;391;51.052;6.954;2022-08-19T04:35:37;11.00;;;10.10;;
817;SDS011;391;51.052;6.954;2022-08-19T04:37:42;12.23;;;11.13;;
817;SDS011;391;51.052;6.954;2022-08-19T04:39:45;12.20;;;11.20;;
817;SDS011;391;51.052;6.954;2022-08-19T04:42:07;10.20;;;9.40;;
817;SDS011;391;51.052;6.954;2022-08-19T04:44:33;11.07;;;10.17;;
817;SDS011;391;51.052;6.954;2022-08-19T04:46:47;12.20;;;11.17;;
817;SDS011;391;51.052;6.954;2022-08-19T04:48:53;12.50;;;11.40;;
817;SDS011;391;51.052;6.954;2022-08-19T04:50:58;12.20;;;11.20;;
817;SDS011;391;51.052;6.954;2022-08-19T04:53:02;12.40;;;11.40;;
817;SDS011;391;51.052;6.954;2022-08-19T04:55:07;13.50;;;12.30;;
817;SDS011;391;51.052;6.954;2022-08-19T04:57:11;11.37;;;10.47;;
817;SDS011;391;51.052;6.954;2022-08-19T04:59:14;12.90;;;11.80;;
817;SDS011;391;51.052;6.954;2022-08-19T05:01:21;11.87;;;10.80;;
817;SDS011;391;51.052;6.954;2022-08-19T05:03:26;14.10;;;13.00;;
817;SDS011;391;51.052;6.954;2022-08-19T05:05:31;13.37;;;12.13;;
817;SDS011;391;51.052;6.954;2022-08-19T05:07:46;15.57;;;14.30;;
817;SDS011;391;51.052;6.954;2022-08-19T05:09:49;13.73;;;12.53;;
817;SDS011;391;51.052;6.954;2022-08-19T05:12:00;13.60;;;12.50;;
817;SDS011;391;51.052;6.954;2022-08-19T05:14:03;12.63;;;11.67;;
817;SDS011;391;51.052;6.954;2022-08-19T05:16:06;11.60;;;10.70;;
817;SDS011;391;51.052;6.954;2022-08-19T05:18:11;10.93;;;10.03;;
817;SDS011;391;51.052;6.954;2022-08-19T05:20:32;16.30;;;12.40;;
817;SDS011;391;51.052;6.954;2022-08-19T05:22:53;15.97;;;14.73;;
817;SDS011;391;51.052;6.954;2022-08-19T05:24:57;15.57;;;14.17;;
817;SDS011;391;51.052;6.954;2022-08-19T05:27:14;17.57;;;15.87;;
817;SDS011;391;51.052;6.954;2022-08-19T05:29:18;21.60;;;19.60;;
817;SDS011;391;51.052;6.954;2022-08-19T05:31:23;23.80;;;21.37;;
817;SDS011;391;51.052;6.954;2022-08-19T05:33:28;25.33;;;22.70;;
817;SDS011;391;51.052;6.954;2022-08-19T05:35:33;24.53;;;22.03;;
817;SDS011;391;51.052;6.954;2022-08-19T05:37:36;29.67;;;26.87;;
817;SDS011;391;51.052;6.954;2022-08-19T05:39:42;27.77;;;24.97;;
817;SDS011;391;51.052;6.954;2022-08-19T05:41:52;31.27;;;28.13;;
817;SDS011;391;51.052;6.954;2022-08-19T05:44:00;29.23;;;26.33;;
817;SDS011;391;51.052;6.954;2022-08-19T05:46:08;23.90;;;21.70;;
817;SDS011;391;51.052;6.954;2022-08-19T05:48:30;29.07;;;26.17;;
817;SDS011;391;51.052;6.954;2022-08-19T05:50:35;29.57;;;26.67;;
817;SDS011;391;51.052;6.954;2022-08-19T05:52:38;25.30;;;22.87;;
817;SDS011;391;51.052;6.954;2022-08-19T05:54:51;32.10;;;29.00;;
817;SDS011;391;51.052;6.954;2022-08-19T05:56:57;29.33;;;26.27;;
817;SDS011;391;51.052;6.954;2022-08-19T05:59:00;32.20;;;29.20;;
817;SDS011;391;51.052;6.954;2022-08-19T06:01:04;27.17;;;24.43;;
817;SDS011;391;51.052;6.954;2022-08-19T06:03:12;24.10;;;21.70;;
817;SDS011;391;51.052;6.954;2022-08-19T06:05:17;28.17;;;25.57;;
817;SDS011;391;51.052;6.954;2022-08-19T06:07:22;28.93;;;25.97;;
817;SDS011;391;51.052;6.954;2022-08-19T06:09:25;25.73;;;23.33;;
817;SDS011;391;51.052;6.954;2022-08-19T06:11:32;32.47;;;29.07;;
817;SDS011;391;51.052;6.954;2022-08-19T06:13:37;29.30;;;26.43;;
817;SDS011;391;51.052;6.954;2022-08-19T06:15:41;28.17;;;25.40;;
817;SDS011;391;51.052;6.954;2022-08-19T06:17:46;32.63;;;29.17;;
817;SDS011;391;51.052;6.954;2022-08-19T06:19:49;27.93;;;25.10;;
817;SDS011;391;51.052;6.954;2022-08-19T06:21:54;31.53;;;28.20;;
817;SDS011;391;51.052;6.954;2022-08-19T06:23:58;36.73;;;33.20;;
817;SDS011;391;51.052;6.954;2022-08-19T06:26:02;34.60;;;30.90;;
817;SDS011;391;51.052;6.954;2022-08-19T06:28:06;30.23;;;27.00;;
817;SDS011;391;51.052;6.954;2022-08-19T06:30:16;33.40;;;29.90;;
817;SDS011;391;51.052;6.954;2022-08-19T06:32:20;34.47;;;31.07;;
817;SDS011;391;51.052;6.954;2022-08-19T06:34:24;25.00;;;22.60;;
817;SDS011;391;51.052;6.954;2022-08-19T06:36:30;30.70;;;27.50;;
817;SDS011;391;51.052;6.954;2022-08-19T06:38:37;33.00;;;29.60;;
817;SDS011;391;51.052;6.954;2022-08-19T06:40:41;30.53;;;27.43;;
817;SDS011;391;51.052;6.954;2022-08-19T06:42:49;31.77;;;28.67;;
817;SDS011;391;51.052;6.954;2022-08-19T06:44:56;34.57;;;30.90;;
817;SDS011;391;51.052;6.954;2022-08-19T06:47:01;27.50;;;24.80;;
817;SDS011;391;51.052;6.954;2022-08-19T06:49:16;28.30;;;25.27;;
817;SDS011;391;51.052;6.954;2022-08-19T06:51:20;29.80;;;26.70;;
817;SDS011;391;51.052;6.954;2022-08-19T06:53:25;27.17;;;24.57;;
817;SDS011;391;51.052;6.954;2022-08-19T06:55:31;25.80;;;23.20;;
817;SDS011;391;51.052;6.954;2022-08-19T06:57:37;23.53;;;21.30;;
817;SDS011;391;51.052;6.954;2022-08-19T06:59:40;27.53;;;24.77;;
817;SDS011;391;51.052;6.954;2022-08-19T07:01:45;28.43;;;25.53;;
817;SDS011;391;51.052;6.954;2022-08-19T07:03:50;26.90;;;24.13;;
817;SDS011;391;51.052;6.954;2022-08-19T07:05:53;30.00;;;26.90;;
817;SDS011;391;51.052;6.954;2022-08-19T07:07:57;23.47;;;20.60;;
817;SDS011;391;51.052;6.954;2022-08-19T07:10:06;28.27;;;25.47;;
817;SDS011;391;51.052;6.954;2022-08-19T07:12:12;20.17;;;18.23;;
817;SDS011;391;51.052;6.954;2022-08-19T07:14:18;19.77;;;17.87;;
817;SDS011;391;51.052;6.954;2022-08-19T07:16:24;17.83;;;16.23;;
817;SDS011;391;51.052;6.954;2022-08-19T07:18:30;23.40;;;21.20;;
817;SDS011;391;51.052;6.954;2022-08-19T07:20:36;25.40;;;22.90;;
817;SDS011;391;51.052;6.954;2022-08-19T07:22:40;29.03;;;26.00;;
817;SDS011;391;51.052;6.954;2022-08-19T07:24:43;24.83;;;22.50;;
817;SDS011;391;51.052;6.954;2022-08-19T07:26:53;22.13;;;20.03;;
817;SDS011;391;51.052;6.954;2022-08-19T07:29:00;20.70;;;18.57;;
817;SDS011;391;51.052;6.954;2022-08-19T07:31:05;23.47;;;21.07;;
817;SDS011;391;51.052;6.954;2022-08-19T07:33:09;24.17;;;21.67;;
817;SDS011;391;51.052;6.954;2022-08-19T07:35:15;22.63;;;20.57;;
817;SDS011;391;51.052;6.954;2022-08-19T07:37:21;22.67;;;20.60;;
817;SDS011;391;51.052;6.954;2022-08-19T07:39:25;20.53;;;18.53;;
817;SDS011;391;51.052;6.954;2022-08-19T07:41:31;25.30;;;22.60;;
817;SDS011;391;51.052;6.954;2022-08-19T07:43:34;28.30;;;24.97;;
817;SDS011;391;51.052;6.954;2022-08-19T07:45:39;26.80;;;24.00;;
817;SDS011;391;51.052;6.954;2022-08-19T07:47:44;27.20;;;24.50;;
817;SDS011;391;51.052;6.954;2022-08-19T07:49:51;27.10;;;24.50;;
817;SDS011;391;51.052;6.954;2022-08-19T07:51:55;29.40;;;26.30;;
817;SDS011;391;51.052;6.954;2022-08-19T07:54:01;27.90;;;25.20;;
817;SDS011;391;51.052;6.954;2022-08-19T07:56:05;30.53;;;27.43;;
817;SDS011;391;51.052;6.954;2022-08-19T07:58:10;27.57;;;24.57;;
817;SDS011;391;51.052;6.954;2022-08-19T08:00:15;29.23;;;25.10;;
817;SDS011;391;51.052;6.954;2022-08-19T08:02:26;29.90;;;26.87;;
817;SDS011;391;51.052;6.954;2022-08-19T08:04:30;26.33;;;23.50;;
817;SDS011;391;51.052;6.954;2022-08-19T08:06:53;28.97;;;25.93;;
817;SDS011;391;51.052;6.954;2022-08-19T08:09:16;28.33;;;25.37;;
817;SDS011;391;51.052;6.954;2022-08-19T08:11:22;33.40;;;30.00;;
817;SDS011;391;51.052;6.954;2022-08-19T08:13:30;33.23;;;29.70;;
817;SDS011;391;51.052;6.954;2022-08-19T08:15:37;29.97;;;26.83;;
817;SDS011;391;51.052;6.954;2022-08-19T08:17:46;31.53;;;27.97;;
817;SDS011;391;51.052;6.954;2022-08-19T08:19:52;36.60;;;29.17;;
817;SDS011;391;51.052;6.954;2022-08-19T08:21:56;31.20;;;27.80;;
817;SDS011;391;51.052;6.954;2022-08-19T08:24:02;30.37;;;27.10;;
817;SDS011;391;51.052;6.954;2022-08-19T08:26:05;29.00;;;25.50;;
817;SDS011;391;51.052;6.954;2022-08-19T08:28:09;35.80;;;31.10;;
817;SDS011;391;51.052;6.954;2022-08-19T08:30:19;29.77;;;27.00;;
817;SDS011;391;51.052;6.954;2022-08-19T08:32:25;32.73;;;29.40;;
817;SDS011;391;51.052;6.954;2022-08-19T08:34:30;31.63;;;28.43;;
817;SDS011;391;51.052;6.954;2022-08-19T08:36:35;27.20;;;24.50;;
817;SDS011;391;51.052;6.954;2022-08-19T08:38:44;31.23;;;27.90;;
817;SDS011;391;51.052;6.954;2022-08-19T08:40:49;26.10;;;23.30;;
817;SDS011;391;51.052;6.954;2022-08-19T08:42:57;31.30;;;27.60;;
817;SDS011;391;51.052;6.954;2022-08-19T08:45:13;28.50;;;25.60;;
817;SDS011;391;51.052;6.954;2022-08-19T08:47:20;25.57;;;22.87;;
817;SDS011;391;51.052;6.954;2022-08-19T08:49:27;30.50;;;27.23;;
817;SDS011;391;51.052;6.954;2022-08-19T08:51:37;27.17;;;24.00;;
817;SDS011;391;51.052;6.954;2022-08-19T08:53:49;30.27;;;26.50;;
817;SDS011;391;51.052;6.954;2022-08-19T08:55:57;23.43;;;20.73;;
817;SDS011;391;51.052;6.954;2022-08-19T08:58:03;30.17;;;25.27;;
817;SDS011;391;51.052;6.954;2022-08-19T09:00:10;27.60;;;24.57;;
817;SDS011;391;51.052;6.954;2022-08-19T09:02:18;32.10;;;27.70;;
817;SDS011;391;51.052;6.954;2022-08-19T09:04:21;34.03;;;30.40;;
817;SDS011;391;51.052;6.954;2022-08-19T09:06:29;29.40;;;26.33;;
817;SDS011;391;51.052;6.954;2022-08-19T09:08:44;34.17;;;30.43;;
817;SDS011;391;51.052;6.954;2022-08-19T09:10:57;39.10;;;30.83;;
817;SDS011;391;51.052;6.954;2022-08-19T09:13:09;37.47;;;28.03;;
817;SDS011;391;51.052;6.954;2022-08-19T09:15:27;33.13;;;29.47;;
817;SDS011;391;51.052;6.954;2022-08-19T09:17:37;32.90;;;29.27;;
817;SDS011;391;51.052;6.954;2022-08-19T09:19:51;28.43;;;25.53;;
817;SDS011;391;51.052;6.954;2022-08-19T09:21:57;34.27;;;30.57;;
817;SDS011;391;51.052;6.954;2022-08-19T09:24:02;27.63;;;24.83;;
817;SDS011;391;51.052;6.954;2022-08-19T09:26:07;32.20;;;28.70;;
817;SDS011;391;51.052;6.954;2022-08-19T09:28:17;32.80;;;28.00;;
817;SDS011;391;51.052;6.954;2022-08-19T09:30:28;32.23;;;28.77;;
817;SDS011;391;51.052;6.954;2022-08-19T09:32:34;29.97;;;26.43;;
817;SDS011;391;51.052;6.954;2022-08-19T09:34:38;22.23;;;20.03;;
817;SDS011;391;51.052;6.954;2022-08-19T09:36:45;22.27;;;19.87;;
817;SDS011;391;51.052;6.954;2022-08-19T09:38:50;24.70;;;21.40;;
817;SDS011;391;51.052;6.954;2022-08-19T09:40:54;20.00;;;17.90;;
817;SDS011;391;51.052;6.954;2022-08-19T09:42:59;19.57;;;17.50;;
817;SDS011;391;51.052;6.954;2022-08-19T09:45:11;22.73;;;20.33;;
817;SDS011;391;51.052;6.954;2022-08-19T09:47:14;25.57;;;21.80;;
817;SDS011;391;51.052;6.954;2022-08-19T09:49:20;24.27;;;21.77;;
817;SDS011;391;51.052;6.954;2022-08-19T09:51:25;21.60;;;19.30;;
817;SDS011;391;51.052;6.954;2022-08-19T09:53:31;24.53;;;20.60;;
817;SDS011;391;51.052;6.954;2022-08-19T09:55:41;23.53;;;21.10;;
817;SDS011;391;51.052;6.954;2022-08-19T09:57:44;19.27;;;17.27;;
817;SDS011;391;51.052;6.954;2022-08-19T09:59:48;21.73;;;19.53;;
817;SDS011;391;51.052;6.954;2022-08-19T10:01:51;24.30;;;21.90;;
817;SDS011;391;51.052;6.954;2022-08-19T10:04:04;21.57;;;18.80;;
817;SDS011;391;51.052;6.954;2022-08-19T10:06:23;18.07;;;16.27;;
817;SDS011;391;51.052;6.954;2022-08-19T10:08:48;17.93;;;16.03;;
817;SDS011;391;51.052;6.954;2022-08-19T10:10:54;16.70;;;15.07;;
817;SDS011;391;51.052;6.954;2022-08-19T10:13:00;15.83;;;14.33;;
817;SDS011;391;51.052;6.954;2022-08-19T10:15:04;20.13;;;18.07;;
817;SDS011;391;51.052;6.954;2022-08-19T10:17:08;15.27;;;13.70;;
817;SDS011;391;51.052;6.954;2022-08-19T10:19:23;20.53;;;18.63;;
817;SDS011;391;51.052;6.954;2022-08-19T10:21:28;19.57;;;17.57;;
817;SDS011;391;51.052;6.954;2022-08-19T10:23:34;17.63;;;15.57;;
817;SDS011;391;51.052;6.954;2022-08-19T10:25:39;21.63;;;17.90;;
817;SDS011;391;51.052;6.954;2022-08-19T10:27:45;15.20;;;13.80;;
817;SDS011;391;51.052;6.954;2022-08-19T10:29:52;17.10;;;15.53;;
817;SDS011;391;51.052;6.954;2022-08-19T10:31:56;16.47;;;15.07;;
817;SDS011;391;51.052;6.954;2022-08-19T10:34:03;15.53;;;14.13;;
817;SDS011;391;51.052;6.954;2022-08-19T10:36:08;16.67;;;14.00;;
817;SDS011;391;51.052;6.954;2022-08-19T10:38:13;12.67;;;11.37;;
817;SDS011;391;51.052;6.954;2022-08-19T10:40:16;11.20;;;10.20;;
817;SDS011;391;51.052;6.954;2022-08-19T10:42:20;11.40;;;10.40;;
817;SDS011;391;51.052;6.954;2022-08-19T10:44:25;14.33;;;12.90;;
817;SDS011;391;51.052;6.954;2022-08-19T10:46:35;14.83;;;13.40;;
817;SDS011;391;51.052;6.954;2022-08-19T10:48:40;12.40;;;11.10;;
817;SDS011;391;51.052;6.954;2022-08-19T10:50:45;10.40;;;9.40;;
817;SDS011;391;51.052;6.954;2022-08-19T10:53:07;12.33;;;11.33;;
817;SDS011;391;51.052;6.954;2022-08-19T10:55:11;11.47;;;10.53;;
817;SDS011;391;51.052;6.954;2022-08-19T10:57:32;12.57;;;10.37;;
817;SDS011;391;51.052;6.954;2022-08-19T10:59:57;11.93;;;10.50;;
817;SDS011;391;51.052;6.954;2022-08-19T11:02:01;11.60;;;9.83;;
817;SDS011;391;51.052;6.954;2022-08-19T11:04:06;11.93;;;10.90;;
817;SDS011;391;51.052;6.954;2022-08-19T11:06:12;13.53;;;12.33;;
817;SDS011;391;51.052;6.954;2022-08-19T11:08:16;14.20;;;12.90;;
817;SDS011;391;51.052;6.954;2022-08-19T11:10:24;14.40;;;13.13;;
817;SDS011;391;51.052;6.954;2022-08-19T11:12:28;12.40;;;11.10;;
817;SDS011;391;51.052;6.954;2022-08-19T11:14:31;12.33;;;11.20;;
817;SDS011;391;51.052;6.954;2022-08-19T11:16:37;18.43;;;14.50;;
817;SDS011;391;51.052;6.954;2022-08-19T11:18:42;16.20;;;14.50;;
817;SDS011;391;51.052;6.954;2022-08-19T11:20:46;16.40;;;14.30;;
817;SDS011;391;51.052;6.954;2022-08-19T11:22:51;13.40;;;12.07;;
817;SDS011;391;51.052;6.954;2022-08-19T11:24:55;12.73;;;11.53;;
817;SDS011;391;51.052;6.954;2022-08-19T11:27:03;12.00;;;11.00;;
817;SDS011;391;51.052;6.954;2022-08-19T11:29:08;13.20;;;10.73;;
817;SDS011;391;51.052;6.954;2022-08-19T11:31:15;12.37;;;11.17;;
817;SDS011;391;51.052;6.954;2022-08-19T11:33:22;12.93;;;12.03;;
817;SDS011;391;51.052;6.954;2022-08-19T11:35:27;12.33;;;11.23;;
817;SDS011;391;51.052;6.954;2022-08-19T11:37:30;13.00;;;11.87;;
817;SDS011;391;51.052;6.954;2022-08-19T11:39:40;13.37;;;12.07;;
817;SDS011;391;51.052;6.954;2022-08-19T11:41:43;13.13;;;12.03;;
817;SDS011;391;51.052;6.954;2022-08-19T11:43:47;12.03;;;10.97;;
817;SDS011;391;51.052;6.954;2022-08-19T11:45:51;11.33;;;10.40;;
817;SDS011;391;51.052;6.954;2022-08-19T11:47:54;11.60;;;10.53;;
817;SDS011;391;51.052;6.954;2022-08-19T11:50:00;11.43;;;10.40;;
817;SDS011;391;51.052;6.954;2022-08-19T11:52:03;9.40;;;8.47;;
817;SDS011;391;51.052;6.954;2022-08-19T11:54:07;13.33;;;11.83;;
817;SDS011;391;51.052;6.954;2022-08-19T11:56:11;12.63;;;11.43;;
817;SDS011;391;51.052;6.954;2022-08-19T11:58:15;12.17;;;11.07;;
817;SDS011;391;51.052;6.954;2022-08-19T12:00:20;11.13;;;10.33;;
817;SDS011;391;51.052;6.954;2022-08-19T12:02:23;11.47;;;10.57;;
817;SDS011;391;51.052;6.954;2022-08-19T12:04:27;9.00;;;8.30;;
817;SDS011;391;51.052;6.954;2022-08-19T12:06:32;9.47;;;8.67;;
817;SDS011;391;51.052;6.954;2022-08-19T12:08:36;9.47;;;8.77;;
817;SDS011;391;51.052;6.954;2022-08-19T12:10:40;9.17;;;8.50;;
817;SDS011;391;51.052;6.954;2022-08-19T12:12:44;10.23;;;9.13;;
817;SDS011;391;51.052;6.954;2022-08-19T12:14:56;9.37;;;8.57;;
817;SDS011;391;51.052;6.954;2022-08-19T12:17:00;10.77;;;9.80;;
817;SDS011;391;51.052;6.954;2022-08-19T12:19:04;8.93;;;8.23;;
817;SDS011;391;51.052;6.954;2022-08-19T12:21:07;9.33;;;8.53;;
817;SDS011;391;51.052;6.954;2022-08-19T12:23:14;8.63;;;8.03;;
817;SDS011;391;51.052;6.954;2022-08-19T12:25:17;8.17;;;7.53;;
817;SDS011;391;51.052;6.954;2022-08-19T12:27:23;8.40;;;7.70;;
817;SDS011;391;51.052;6.954;2022-08-19T12:29:42;8.80;;;8.10;;
817;SDS011;391;51.052;6.954;2022-08-19T12:31:45;9.43;;;8.43;;
817;SDS011;391;51.052;6.954;2022-08-19T12:33:49;9.30;;;8.50;;
817;SDS011;391;51.052;6.954;2022-08-19T12:35:54;8.33;;;7.73;;
817;SDS011;391;51.052;6.954;2022-08-19T12:37:58;8.50;;;7.90;;
817;SDS011;391;51.052;6.954;2022-08-19T12:40:05;7.57;;;6.87;;
817;SDS011;391;51.052;6.954;2022-08-19T12:42:10;8.50;;;7.80;;
817;SDS011;391;51.052;6.954;2022-08-19T12:44:14;7.87;;;7.17;;
817;SDS011;391;51.052;6.954;2022-08-19T12:46:20;8.80;;;7.00;;
817;SDS011;391;51.052;6.954;2022-08-19T12:48:27;7.87;;;7.20;;
817;SDS011;391;51.052;6.954;2022-08-19T12:50:35;11.33;;;7.43;;
817;SDS011;391;51.052;6.954;2022-08-19T12:52:38;9.10;;;7.87;;
817;SDS011;391;51.052;6.954;2022-08-19T12:54:44;8.60;;;7.70;;
817;SDS011;391;51.052;6.954;2022-08-19T12:56:49;8.07;;;7.17;;
817;SDS011;391;51.052;6.954;2022-08-19T12:58:52;9.43;;;8.43;;
817;SDS011;391;51.052;6.954;2022-08-19T13:00:56;10.10;;;9.20;;
817;SDS011;391;51.052;6.954;2022-08-19T13:03:00;9.87;;;8.97;;
817;SDS011;391;51.052;6.954;2022-08-19T13:05:03;8.90;;;8.20;;
817;SDS011;391;51.052;6.954;2022-08-19T13:07:08;8.37;;;7.57;;
817;SDS011;391;51.052;6.954;2022-08-19T13:09:12;7.50;;;6.83;;